Bernard A — TCWN3 — position and weather

sailwx.info

Track history (hours):
 
Tides and Currents Weather Stations Pressure Air Temp Water Temp Dewpoint Dewpoint Depression Visibility Wind Speed Wind Dir Waves Ship Positions

Bernard A

Last reported at 2015-Jul-29 16:26 UTC. Time now 2015-Jul-29 17:56 UTC.
Position N 43°30' E 032°19'.

Length 184 m; draft 8.1 m.

Type: Ship (hazmat cat A). MMSI: 271040008.

Date/timePositionNaut miles runAvg speedWind from/ knotsBaromVisibWave heightAir tempDewpointWater temp
2015-Jul-29 16:26N 43°30' E 032°19'1011.8
2015-Jul-29 15:33N 43°28' E 032°33'1211.6
2015-Jul-29 14:33N 43°26' E 032°49'1814.8
2015-Jul-29 13:22N 43°23' E 033°12'1315.6
2015-Jul-29 12:33N 43°20' E 033°29'1615.7
2015-Jul-29 11:31N 43°16' E 033°51'1515.9
2015-Jul-29 10:34N 43°14' E 034°12'1616.0
2015-Jul-29 09:34N 43°11' E 034°33'1616.0
2015-Jul-29 08:34N 43°08' E 034°55'1615.9
2015-Jul-29 07:34N 43°05' E 035°17'1615.9
2015-Jul-29 06:34N 43°02' E 035°38'1615.7
2015-Jul-29 05:33N 42°59' E 035°59'1615.7
2015-Jul-29 04:33N 42°57' E 036°20'1615.9
2015-Jul-29 03:34N 42°53' E 036°41'1716.3
2015-Jul-29 02:30N 42°50' E 037°04'1616.6
2015-Jul-29 01:34N 42°47' E 037°25'  
2015-Jul-25 12:33N 42°11' E 038°42'7011.6
2015-Jul-25 06:31N 42°10' E 037°07'37212.8
2015-Jul-24 01:31N 40°59' E 028°60'1311.9
2015-Jul-24 00:26N 40°49' E 028°50'0 0.1
2015-Jul-23 23:33N 40°49' E 028°50'1 0.7
2015-Jul-23 22:27N 40°49' E 028°51'1 0.7
2015-Jul-23 21:33N 40°48' E 028°52'1 0.8
2015-Jul-23 20:33N 40°48' E 028°53'1 0.6
2015-Jul-23 19:32N 40°48' E 028°53'7 7.0
2015-Jul-23 18:33N 40°52' E 028°45'  
2015-Jul-20 03:33N 40°56' E 028°52'  
Track history (hours):
 
Tides and Currents Weather Stations Pressure Air Temp Water Temp Dewpoint Dewpoint Depression Visibility Wind Speed Wind Dir Waves Ship Positions

Bernard A

Last reported at 2015-Jul-29 16:26 UTC. Time now 2015-Jul-29 17:56 UTC.
Position N 43°30' E 032°19'.

Length 184 m; draft 8.1 m.

Type: Ship (hazmat cat A). MMSI: 271040008.

Date/timePositionNaut miles runAvg speedWind from/ knotsBaromVisibWave heightAir tempDewpointWater temp
2015-Jul-29 16:26N 43°30' E 032°19'1011.8
2015-Jul-29 15:33N 43°28' E 032°33'1211.6
2015-Jul-29 14:33N 43°26' E 032°49'1814.8
2015-Jul-29 13:22N 43°23' E 033°12'1315.6
2015-Jul-29 12:33N 43°20' E 033°29'1615.7
2015-Jul-29 11:31N 43°16' E 033°51'1515.9
2015-Jul-29 10:34N 43°14' E 034°12'1616.0
2015-Jul-29 09:34N 43°11' E 034°33'1616.0
2015-Jul-29 08:34N 43°08' E 034°55'1615.9
2015-Jul-29 07:34N 43°05' E 035°17'1615.9
2015-Jul-29 06:34N 43°02' E 035°38'1615.7
2015-Jul-29 05:33N 42°59' E 035°59'1615.7
2015-Jul-29 04:33N 42°57' E 036°20'1615.9
2015-Jul-29 03:34N 42°53' E 036°41'1716.3
2015-Jul-29 02:30N 42°50' E 037°04'1616.6
2015-Jul-29 01:34N 42°47' E 037°25'  
2015-Jul-25 12:33N 42°11' E 038°42'7011.6
2015-Jul-25 06:31N 42°10' E 037°07'37212.8
2015-Jul-24 01:31N 40°59' E 028°60'1311.9
2015-Jul-24 00:26N 40°49' E 028°50'0 0.1
2015-Jul-23 23:33N 40°49' E 028°50'1 0.7
2015-Jul-23 22:27N 40°49' E 028°51'1 0.7
2015-Jul-23 21:33N 40°48' E 028°52'1 0.8
2015-Jul-23 20:33N 40°48' E 028°53'1 0.6
2015-Jul-23 19:32N 40°48' E 028°53'7 7.0
2015-Jul-23 18:33N 40°52' E 028°45'  
2015-Jul-20 03:33N 40°56' E 028°52'  

Dump ship's entire track history